createdAt,value
2023-01-03T00:01:09.059Z,25.92
2023-01-03T00:04:16.370Z,25.92
2023-01-03T00:07:36.277Z,29.95
2023-01-03T00:10:42.550Z,28.30
2023-01-03T00:13:45.422Z,27.15
2023-01-03T00:16:51.466Z,29.15
2023-01-03T00:19:54.943Z,29.17
2023-01-03T00:22:57.212Z,27.55
2023-01-03T00:25:59.563Z,27.03
2023-01-03T00:29:02.536Z,26.02
2023-01-03T00:32:05.459Z,25.15
2023-01-03T00:35:08.269Z,23.95
2023-01-03T00:38:10.446Z,25.35
2023-01-03T00:41:15.741Z,26.33
2023-01-03T00:44:18.190Z,26.10
2023-01-03T00:47:20.479Z,27.67
2023-01-03T00:50:22.847Z,27.13
2023-01-03T00:53:25.382Z,29.65
2023-01-03T00:56:32.677Z,25.47
2023-01-03T00:59:35.349Z,24.13
2023-01-03T01:02:38.559Z,27.23
2023-01-03T01:05:40.865Z,26.48
2023-01-03T01:08:44.025Z,24.45
2023-01-03T01:11:46.817Z,22.90
2023-01-03T01:14:48.939Z,23.38
2023-01-03T01:17:51.532Z,23.67
2023-01-03T01:20:53.872Z,24.25
2023-01-03T01:23:57.409Z,22.52
2023-01-03T01:26:59.835Z,23.23
2023-01-03T01:30:02.507Z,21.98
2023-01-03T01:33:05.666Z,19.50
2023-01-03T01:36:13.230Z,20.52
2023-01-03T01:39:23.320Z,21.13
2023-01-03T01:42:44.006Z,20.23
2023-01-03T01:45:47.009Z,22.88
2023-01-03T01:48:54.857Z,20.70
2023-01-03T01:51:58.586Z,20.63
2023-01-03T01:55:03.399Z,21.85
2023-01-03T01:58:07.613Z,21.17
2023-01-03T02:01:13.836Z,21.98
2023-01-03T02:04:27.024Z,19.55
2023-01-03T02:07:29.563Z,19.17
2023-01-03T02:10:53.472Z,19.27
2023-01-03T02:14:44.683Z,18.47
2023-01-03T02:18:00.882Z,17.73
2023-01-03T02:21:24.562Z,17.50
2023-01-03T02:24:32.768Z,16.60
2023-01-03T02:27:53.382Z,16.75
2023-01-03T02:31:18.706Z,17.27
2023-01-03T02:34:43.334Z,18.60
2023-01-03T02:38:08.899Z,16.48
2023-01-03T02:41:42.945Z,15.75
2023-01-03T02:44:55.749Z,14.63
2023-01-03T02:48:03.864Z,17.17
2023-01-03T02:51:18.293Z,15.38
2023-01-03T02:54:37.135Z,15.07
2023-01-03T02:57:46.009Z,15.48
2023-01-03T03:00:51.957Z,15.75
2023-01-03T03:03:54.670Z,14.30
2023-01-03T03:07:03.641Z,15.15
2023-01-03T03:10:27.479Z,15.20
2023-01-03T03:13:38.469Z,15.45
2023-01-03T03:16:49.193Z,16.35
2023-01-03T03:20:15.119Z,15.77
2023-01-03T03:23:42.956Z,14.63
2023-01-03T03:26:47.041Z,14.27
2023-01-03T03:29:49.751Z,14.07
2023-01-03T03:32:58.732Z,14.55
2023-01-03T03:36:08.120Z,15.03
2023-01-03T03:39:33.350Z,14.77
2023-01-03T03:42:59.726Z,14.73
2023-01-03T03:46:14.923Z,12.27
2023-01-03T03:49:40.388Z,11.90
2023-01-03T03:52:46.435Z,10.53
2023-01-03T03:55:58.912Z,11.60
2023-01-03T03:59:07.335Z,13.07
2023-01-03T04:02:12.230Z,12.13
2023-01-03T04:05:20.941Z,15.38
2023-01-03T04:08:23.172Z,16.67
2023-01-03T04:11:25.881Z,18.08
2023-01-03T04:14:28.017Z,18.73
2023-01-03T04:17:30.596Z,17.40
2023-01-03T04:20:33.025Z,18.67
2023-01-03T04:23:35.367Z,19.33
2023-01-03T04:26:37.682Z,16.10
2023-01-03T04:29:41.327Z,18.30
2023-01-03T04:32:46.584Z,18.83
2023-01-03T04:35:50.239Z,17.38
2023-01-03T04:38:52.503Z,22.67
2023-01-03T04:41:54.579Z,24.17
2023-01-03T04:44:56.825Z,19.73
2023-01-03T04:47:58.937Z,18.70
2023-01-03T04:51:01.555Z,19.42
2023-01-03T04:54:05.188Z,15.67
2023-01-03T04:57:08.194Z,15.32
2023-01-03T05:00:11.668Z,17.55
2023-01-03T05:03:13.687Z,17.70
2023-01-03T05:06:17.529Z,17.23
2023-01-03T05:09:21.383Z,17.60
2023-01-03T05:12:23.559Z,17.17
2023-01-03T05:15:27.652Z,15.45
2023-01-03T05:18:31.543Z,13.70
2023-01-03T05:21:52.185Z,14.13
2023-01-03T05:25:13.227Z,15.17
2023-01-03T05:28:17.716Z,14.05
2023-01-03T05:31:20.905Z,13.00
2023-01-03T05:34:23.070Z,12.80
2023-01-03T05:37:25.338Z,12.43
2023-01-03T05:40:29.497Z,12.03
2023-01-03T05:43:31.735Z,17.02
2023-01-03T05:46:34.144Z,14.80
2023-01-03T05:49:36.594Z,14.63
2023-01-03T05:52:38.537Z,15.77
2023-01-03T05:55:41.256Z,13.13
2023-01-03T05:58:44.170Z,14.43
2023-01-03T06:01:46.330Z,15.02
2023-01-03T06:04:48.367Z,15.43
2023-01-03T06:07:50.550Z,13.98
2023-01-03T06:10:55.986Z,12.77
2023-01-03T06:13:58.243Z,12.75
2023-01-03T06:17:21.192Z,12.40
2023-01-03T06:20:28.638Z,12.75
2023-01-03T06:23:30.517Z,14.63
2023-01-03T06:26:32.777Z,13.80
2023-01-03T06:29:36.127Z,16.23
2023-01-03T06:32:39.288Z,13.48
2023-01-03T06:35:41.642Z,13.48
2023-01-03T06:38:53.359Z,14.50
2023-01-03T06:41:55.574Z,14.70
2023-01-03T06:45:16.357Z,14.55
2023-01-03T06:48:37.289Z,16.23
2023-01-03T06:51:58.836Z,14.32
2023-01-03T06:55:02.229Z,15.07
2023-01-03T06:58:04.387Z,14.37
2023-01-03T07:01:07.091Z,15.73
2023-01-03T07:04:10.554Z,13.60
2023-01-03T07:07:13.085Z,12.60
2023-01-03T07:10:18.303Z,12.02
2023-01-03T07:13:38.977Z,10.83
2023-01-03T07:16:46.154Z,9.85
2023-01-03T07:19:48.505Z,10.27
2023-01-03T07:22:52.307Z,10.35
2023-01-03T07:25:56.533Z,10.52
2023-01-03T07:28:59.394Z,9.63
2023-01-03T07:32:01.856Z,10.27
2023-01-03T07:35:06.033Z,10.43
2023-01-03T07:38:10.455Z,8.75
2023-01-03T07:41:15.608Z,8.65
2023-01-03T07:44:17.972Z,9.07
2023-01-03T07:47:21.702Z,9.15
2023-01-03T07:50:24.880Z,9.48
2023-01-03T07:53:29.398Z,9.25
2023-01-03T07:56:32.686Z,9.45
2023-01-03T07:59:34.833Z,9.20
2023-01-03T08:02:37.004Z,8.73
2023-01-03T08:05:39.388Z,9.43
2023-01-03T08:08:42.843Z,7.70
2023-01-03T08:12:04.332Z,8.40
2023-01-03T08:15:06.885Z,8.73
2023-01-03T08:18:09.046Z,9.30
2023-01-03T08:21:13.949Z,9.65
2023-01-03T08:24:16.105Z,9.88
2023-01-03T08:27:18.274Z,8.13
2023-01-03T08:30:24.838Z,10.50
2023-01-03T08:33:32.099Z,10.15
2023-01-03T08:36:41.431Z,10.02
2023-01-03T08:39:50.932Z,10.60
2023-01-03T08:42:53.194Z,10.35
2023-01-03T08:45:55.444Z,10.20
2023-01-03T08:48:57.591Z,10.18
2023-01-03T08:52:01.591Z,9.27
2023-01-03T08:55:05.502Z,10.32
2023-01-03T08:58:09.892Z,10.05
2023-01-03T09:01:13.470Z,9.87
2023-01-03T09:04:15.710Z,8.77
2023-01-03T09:07:17.890Z,9.13
2023-01-03T09:10:25.785Z,9.98
2023-01-03T09:13:31.859Z,9.23
2023-01-03T09:16:35.699Z,9.23
2023-01-03T09:19:38.785Z,10.93
2023-01-03T09:22:41.578Z,10.23
2023-01-03T09:25:44.426Z,10.95
2023-01-03T09:28:47.850Z,10.27
2023-01-03T09:31:51.576Z,10.17
2023-01-03T09:34:54.279Z,10.57
2023-01-03T09:37:59.277Z,9.43
2023-01-03T09:41:06.567Z,10.70
2023-01-03T09:44:09.427Z,9.68
2023-01-03T09:47:23.113Z,10.03
2023-01-03T09:50:39.231Z,9.75
2023-01-03T09:54:12.887Z,10.52
2023-01-03T09:58:16.811Z,9.05
2023-01-03T10:01:50.652Z,9.10
2023-01-03T10:05:08.506Z,9.40
2023-01-03T10:08:39.688Z,9.38
2023-01-03T10:12:12.692Z,10.43
2023-01-03T10:15:27.427Z,9.82
2023-01-03T10:18:48.736Z,10.18
2023-01-03T10:21:58.030Z,9.43
2023-01-03T10:25:13.831Z,9.88
2023-01-03T10:28:24.183Z,10.32
2023-01-03T10:31:47.741Z,9.50
2023-01-03T10:35:28.610Z,8.85
2023-01-03T10:38:34.116Z,8.63
2023-01-03T10:41:51.686Z,8.85
2023-01-03T10:45:06.699Z,8.40
2023-01-03T10:48:16.621Z,8.70
2023-01-03T10:51:42.522Z,8.60
2023-01-03T10:54:56.151Z,8.87
2023-01-03T10:58:16.714Z,8.75
2023-01-03T11:01:24.822Z,9.00
2023-01-03T11:04:32.036Z,8.40
2023-01-03T11:07:54.208Z,8.73
2023-01-03T11:11:00.830Z,9.30
2023-01-03T11:14:18.026Z,8.88
2023-01-03T11:17:21.611Z,8.90
2023-01-03T11:20:57.971Z,8.20
2023-01-03T11:24:43.395Z,8.02
2023-01-03T11:28:23.404Z,9.17
2023-01-03T11:31:55.571Z,8.48
2023-01-03T11:35:26.562Z,8.45
2023-01-03T11:38:34.353Z,8.55
2023-01-03T11:41:56.090Z,8.52
2023-01-03T11:45:04.748Z,9.63
2023-01-03T11:48:52.151Z,8.10
2023-01-03T11:52:12.493Z,8.07
2023-01-03T11:55:41.650Z,8.75
2023-01-03T11:58:46.772Z,7.60
2023-01-03T12:02:30.346Z,7.77
2023-01-03T12:05:48.714Z,7.18
2023-01-03T12:09:02.923Z,8.25
2023-01-03T12:12:08.350Z,7.72
2023-01-03T12:15:23.420Z,8.23
2023-01-03T12:18:29.180Z,7.10
2023-01-03T12:21:38.683Z,6.25
2023-01-03T12:25:04.443Z,6.55
2023-01-03T12:28:10.601Z,6.32
2023-01-03T12:31:36.949Z,6.90
2023-01-03T12:34:43.888Z,7.40
2023-01-03T12:37:49.850Z,6.72
2023-01-03T12:40:59.059Z,6.32
2023-01-03T12:44:17.764Z,6.68
2023-01-03T12:47:40.179Z,6.40
2023-01-03T12:50:52.363Z,6.63
2023-01-03T12:54:10.169Z,6.50
2023-01-03T12:57:33.920Z,6.00
2023-01-03T13:00:57.421Z,6.95
2023-01-03T13:04:07.561Z,6.75
2023-01-03T13:07:23.445Z,6.90
2023-01-03T13:10:31.286Z,7.22
2023-01-03T13:13:36.854Z,6.30
2023-01-03T13:16:46.438Z,6.13
2023-01-03T13:19:54.816Z,5.80
2023-01-03T13:23:00.661Z,4.80
2023-01-03T13:26:06.151Z,6.35
2023-01-03T13:29:44.164Z,6.75
2023-01-03T13:33:08.423Z,6.95
2023-01-03T13:36:11.045Z,6.90
2023-01-03T13:39:39.513Z,6.43
2023-01-03T13:42:44.985Z,6.43
2023-01-03T13:45:47.241Z,5.93
2023-01-03T13:49:09.192Z,7.18
2023-01-03T13:52:38.664Z,6.68
2023-01-03T13:55:54.805Z,6.57
2023-01-03T13:59:18.005Z,7.03
2023-01-03T14:02:45.864Z,6.90
2023-01-03T14:06:13.658Z,6.53
2023-01-03T14:09:24.333Z,6.18
2023-01-03T14:12:52.144Z,7.00
2023-01-03T14:16:16.708Z,6.68
2023-01-03T14:19:32.692Z,5.85
2023-01-03T14:22:48.709Z,6.63
2023-01-03T14:25:55.869Z,7.32
2023-01-03T14:28:58.347Z,6.60
2023-01-03T14:32:00.716Z,6.70
2023-01-03T14:35:04.367Z,6.93
2023-01-03T14:38:21.538Z,6.57
2023-01-03T14:41:34.272Z,7.45
2023-01-03T14:44:38.824Z,6.80
2023-01-03T14:47:42.926Z,7.78
2023-01-03T14:50:45.410Z,7.20
2023-01-03T14:53:50.805Z,7.38
2023-01-03T14:56:55.428Z,6.80
2023-01-03T15:00:01.064Z,7.17
2023-01-03T15:03:04.415Z,7.72
2023-01-03T15:06:22.584Z,8.40
2023-01-03T15:09:25.833Z,7.07
2023-01-03T15:12:31.198Z,7.47
2023-01-03T15:15:38.545Z,7.93
2023-01-03T15:18:43.594Z,7.63
2023-01-03T15:21:47.451Z,7.72
2023-01-03T15:24:55.178Z,8.65
2023-01-03T15:28:12.548Z,9.52
2023-01-03T15:31:37.412Z,10.57
2023-01-03T15:34:41.961Z,9.98
2023-01-03T15:37:44.418Z,9.98
2023-01-03T15:40:51.791Z,9.77
2023-01-03T15:43:55.706Z,10.18
2023-01-03T15:47:05.675Z,10.13
2023-01-03T15:50:16.185Z,10.65
2023-01-03T15:53:30.054Z,10.68
2023-01-03T15:56:35.286Z,10.80
2023-01-03T16:00:10.820Z,9.80
2023-01-03T16:03:17.550Z,9.13
2023-01-03T16:06:20.808Z,10.00
2023-01-03T16:09:24.305Z,11.00
2023-01-03T16:12:35.304Z,9.93
2023-01-03T16:15:43.827Z,9.95
2023-01-03T16:18:46.617Z,9.83
2023-01-03T16:22:09.346Z,9.10
2023-01-03T16:25:17.563Z,9.95
2023-01-03T16:28:19.719Z,9.57
2023-01-03T16:31:33.459Z,10.27
2023-01-03T16:34:36.179Z,9.77
2023-01-03T16:37:38.786Z,10.75
2023-01-03T16:40:41.982Z,9.23
2023-01-03T16:43:44.121Z,10.38
2023-01-03T16:46:49.255Z,11.77
2023-01-03T16:49:57.710Z,10.10
2023-01-03T16:53:00.674Z,9.80
2023-01-03T16:56:07.795Z,10.25
2023-01-03T16:59:16.946Z,10.02
2023-01-03T17:02:19.601Z,10.32
2023-01-03T17:05:23.233Z,10.43
2023-01-03T17:08:36.751Z,10.43
2023-01-03T17:11:40.344Z,10.77
2023-01-03T17:14:44.224Z,12.73
2023-01-03T17:17:46.775Z,12.70
2023-01-03T17:21:00.744Z,12.77
2023-01-03T17:24:08.318Z,12.63
2023-01-03T17:27:18.562Z,13.18
2023-01-03T17:30:24.749Z,12.90
2023-01-03T17:33:33.611Z,13.27
2023-01-03T17:36:37.270Z,13.03
2023-01-03T17:39:40.843Z,13.88
2023-01-03T17:42:44.667Z,12.25
2023-01-03T17:46:06.740Z,12.55
2023-01-03T17:49:25.848Z,13.25
2023-01-03T17:52:34.228Z,12.63
2023-01-03T17:55:36.812Z,12.85
2023-01-03T17:58:38.893Z,13.75
2023-01-03T18:01:42.566Z,14.00
2023-01-03T18:05:14.710Z,12.27
2023-01-03T18:08:20.822Z,13.10
2023-01-03T18:11:27.128Z,12.60
2023-01-03T18:14:32.413Z,12.90
2023-01-03T18:17:34.658Z,11.73
2023-01-03T18:20:39.537Z,12.93
2023-01-03T18:23:42.483Z,12.50
2023-01-03T18:26:49.561Z,12.48
2023-01-03T18:29:51.807Z,12.88
2023-01-03T18:32:54.313Z,13.23
2023-01-03T18:35:56.532Z,13.30
2023-01-03T18:39:06.358Z,12.67
2023-01-03T18:42:32.476Z,12.85
2023-01-03T18:45:36.447Z,13.85
2023-01-03T18:48:38.918Z,12.40
2023-01-03T18:51:44.276Z,11.77
2023-01-03T18:54:47.262Z,11.70
2023-01-03T18:57:54.607Z,11.60
2023-01-03T19:00:58.311Z,13.02
2023-01-03T19:04:03.573Z,12.88
2023-01-03T19:07:08.316Z,13.93
2023-01-03T19:10:24.497Z,13.07
2023-01-03T19:13:30.767Z,12.23
2023-01-03T19:16:40.855Z,13.13
2023-01-03T19:19:43.511Z,13.27
2023-01-03T19:22:47.296Z,13.63
2023-01-03T19:25:49.759Z,12.90
2023-01-03T19:28:57.480Z,13.35
2023-01-03T19:31:59.730Z,12.82
2023-01-03T19:35:02.172Z,12.23
2023-01-03T19:38:07.012Z,11.90
2023-01-03T19:41:15.073Z,10.83
2023-01-03T19:44:18.657Z,11.02
2023-01-03T19:47:22.375Z,10.00
2023-01-03T19:50:35.170Z,10.98
2023-01-03T19:53:38.090Z,10.85
2023-01-03T19:56:40.511Z,9.60
2023-01-03T19:59:46.358Z,10.25
2023-01-03T20:02:52.767Z,9.05
2023-01-03T20:05:56.190Z,10.70
2023-01-03T20:08:58.300Z,10.38
2023-01-03T20:12:00.595Z,10.43
2023-01-03T20:15:07.261Z,10.02
2023-01-03T20:18:32.185Z,9.43
2023-01-03T20:21:34.618Z,8.60
2023-01-03T20:24:36.796Z,9.70
2023-01-03T20:27:46.189Z,8.50
2023-01-03T20:30:50.492Z,9.02
2023-01-03T20:33:52.954Z,8.68
2023-01-03T20:36:55.807Z,7.88
2023-01-03T20:39:58.080Z,9.73
2023-01-03T20:43:02.293Z,8.27
2023-01-03T20:46:04.880Z,8.68
2023-01-03T20:49:15.045Z,8.65
2023-01-03T20:52:18.632Z,9.45
2023-01-03T20:55:23.043Z,9.38
2023-01-03T20:58:25.766Z,8.77
2023-01-03T21:01:27.934Z,7.47
2023-01-03T21:04:30.413Z,7.85
2023-01-03T21:07:50.917Z,8.07
2023-01-03T21:10:54.414Z,7.93
2023-01-03T21:13:58.612Z,7.50
2023-01-03T21:17:00.627Z,8.63
2023-01-03T21:20:10.534Z,8.32
2023-01-03T21:23:23.689Z,8.65
2023-01-03T21:26:29.671Z,7.93
2023-01-03T21:29:32.391Z,8.60
2023-01-03T21:32:34.515Z,8.80
2023-01-03T21:35:41.167Z,7.35
2023-01-03T21:38:44.070Z,7.78
2023-01-03T21:42:08.213Z,7.25
2023-01-03T21:45:14.139Z,7.13
2023-01-03T21:48:18.504Z,7.72
2023-01-03T21:51:33.508Z,7.63
2023-01-03T21:54:39.869Z,7.00
2023-01-03T21:57:41.850Z,5.75
2023-01-03T22:00:45.716Z,5.57
2023-01-03T22:04:06.835Z,5.47
2023-01-03T22:07:08.850Z,5.65
2023-01-03T22:10:17.038Z,5.93
2023-01-03T22:13:22.060Z,4.63
2023-01-03T22:16:24.769Z,4.50
2023-01-03T22:19:28.453Z,5.22
2023-01-03T22:22:30.473Z,4.90
2023-01-03T22:25:32.721Z,4.45
2023-01-03T22:28:40.332Z,3.28
2023-01-03T22:31:45.116Z,3.73
2023-01-03T22:34:47.007Z,3.97
2023-01-03T22:37:49.043Z,4.18
2023-01-03T22:40:51.886Z,4.72
2023-01-03T22:43:54.340Z,4.53
2023-01-03T22:46:56.412Z,4.03
2023-01-03T22:49:59.161Z,3.60
2023-01-03T22:53:01.918Z,4.28
2023-01-03T22:56:10.408Z,3.88
2023-01-03T22:59:12.872Z,4.15
2023-01-03T23:02:15.251Z,4.10
2023-01-03T23:05:18.028Z,3.83
2023-01-03T23:08:21.576Z,4.03
2023-01-03T23:11:44.420Z,4.50
2023-01-03T23:14:47.320Z,4.20
2023-01-03T23:17:58.870Z,3.90
2023-01-03T23:21:06.324Z,3.90
2023-01-03T23:24:13.199Z,3.90
2023-01-03T23:27:15.717Z,3.10
2023-01-03T23:30:22.448Z,3.90
2023-01-03T23:33:24.863Z,3.93
2023-01-03T23:36:27.807Z,3.70
2023-01-03T23:39:29.873Z,3.47
2023-01-03T23:42:31.989Z,3.10
2023-01-03T23:45:37.099Z,4.60
2023-01-03T23:48:40.342Z,3.87
2023-01-03T23:51:43.583Z,3.55
2023-01-03T23:54:47.195Z,4.00
2023-01-03T23:57:49.246Z,4.07
